createdAt,value
2022-09-16T00:00:54.200Z,4.22
2022-09-16T00:03:23.949Z,5.43
2022-09-16T00:05:55.778Z,1.92
2022-09-16T00:08:28.114Z,4.40
2022-09-16T00:11:02.660Z,2.60
2022-09-16T00:13:32.568Z,1.33
2022-09-16T00:16:02.446Z,2.97
2022-09-16T00:18:32.177Z,3.38
2022-09-16T00:21:01.924Z,1.60
2022-09-16T00:23:34.211Z,1.38
2022-09-16T00:26:04.063Z,3.90
2022-09-16T00:28:34.291Z,4.25
2022-09-16T00:31:04.954Z,7.00
2022-09-16T00:33:34.856Z,6.88
2022-09-16T00:36:09.271Z,3.85
2022-09-16T00:38:41.913Z,4.30
2022-09-16T00:41:17.312Z,4.70
2022-09-16T00:43:55.930Z,6.22
2022-09-16T00:46:31.998Z,3.70
2022-09-16T00:49:05.937Z,6.85
2022-09-16T00:51:36.459Z,4.40
2022-09-16T00:54:10.712Z,4.88
2022-09-16T00:56:43.140Z,5.65
2022-09-16T00:59:17.847Z,4.13
2022-09-16T01:01:49.593Z,4.15
2022-09-16T01:04:24.506Z,3.40
2022-09-16T01:06:54.539Z,6.78
2022-09-16T01:09:29.531Z,4.50
2022-09-16T01:11:59.411Z,3.00
2022-09-16T01:14:43.355Z,4.45
2022-09-16T01:17:20.617Z,7.38
2022-09-16T01:20:13.683Z,4.22
2022-09-16T01:22:57.289Z,4.57
2022-09-16T01:25:48.251Z,5.30
2022-09-16T01:28:37.170Z,4.40
2022-09-16T01:31:18.711Z,2.65
2022-09-16T01:33:59.261Z,3.70
2022-09-16T01:36:42.822Z,3.85
2022-09-16T01:39:30.006Z,3.85
2022-09-16T01:42:11.857Z,2.67
2022-09-16T01:44:49.941Z,7.15
2022-09-16T01:47:28.738Z,6.13
2022-09-16T01:50:04.430Z,5.93
2022-09-16T01:52:44.359Z,9.48
2022-09-16T01:55:21.297Z,5.82
2022-09-16T01:57:56.301Z,4.88
2022-09-16T02:00:26.352Z,3.75
2022-09-16T02:03:04.233Z,5.53
2022-09-16T02:05:37.382Z,4.55
2022-09-16T02:08:12.797Z,5.70
2022-09-16T02:10:46.361Z,7.28
2022-09-16T02:13:19.981Z,6.72
2022-09-16T02:15:52.677Z,5.22
2022-09-16T02:18:31.153Z,3.65
2022-09-16T02:21:03.802Z,5.18
2022-09-16T02:23:39.962Z,9.32
2022-09-16T02:26:13.664Z,9.13
2022-09-16T02:28:46.997Z,4.35
2022-09-16T02:31:18.473Z,5.38
2022-09-16T02:33:55.387Z,5.72
2022-09-16T02:36:28.689Z,4.05
2022-09-16T02:39:04.786Z,7.47
2022-09-16T02:41:34.601Z,7.35
2022-09-16T02:44:05.077Z,6.22
2022-09-16T02:46:42.290Z,4.45
2022-09-16T02:49:20.111Z,5.47
2022-09-16T02:51:59.485Z,5.28
2022-09-16T02:54:39.547Z,9.43
2022-09-16T02:57:10.007Z,3.42
2022-09-16T02:59:40.749Z,4.65
2022-09-16T03:02:10.671Z,4.13
2022-09-16T03:04:43.046Z,5.82
2022-09-16T03:07:14.405Z,8.88
2022-09-16T03:09:47.324Z,8.65
2022-09-16T03:12:49.700Z,11.18
2022-09-16T03:15:36.121Z,4.97
2022-09-16T03:18:25.584Z,6.55
2022-09-16T03:21:03.040Z,10.40
2022-09-16T03:23:47.442Z,5.85
2022-09-16T03:26:25.467Z,6.75
2022-09-16T03:29:07.454Z,9.98
2022-09-16T03:31:46.726Z,9.70
2022-09-16T03:34:20.386Z,7.68
2022-09-16T03:36:57.326Z,7.45
2022-09-16T03:39:27.654Z,7.28
2022-09-16T03:41:58.317Z,8.50
2022-09-16T03:44:34.745Z,6.28
2022-09-16T03:47:04.741Z,10.00
2022-09-16T03:49:34.487Z,8.82
2022-09-16T03:52:07.938Z,4.30
2022-09-16T03:54:37.937Z,6.80
2022-09-16T03:57:08.347Z,7.35
2022-09-16T03:59:38.048Z,11.27
2022-09-16T04:02:08.092Z,5.72
2022-09-16T04:04:37.774Z,6.28
2022-09-16T04:07:10.108Z,7.50
2022-09-16T04:09:40.141Z,3.08
2022-09-16T04:12:09.968Z,6.32
2022-09-16T04:14:40.109Z,6.72
2022-09-16T04:17:09.853Z,3.17
2022-09-16T04:19:39.546Z,3.75
2022-09-16T04:22:11.892Z,5.15
2022-09-16T04:24:41.717Z,6.63
2022-09-16T04:27:11.445Z,7.82
2022-09-16T04:29:41.153Z,5.90
2022-09-16T04:32:10.888Z,7.47
2022-09-16T04:34:40.688Z,5.95
2022-09-16T04:37:12.953Z,5.10
2022-09-16T04:39:42.657Z,4.68
2022-09-16T04:42:12.733Z,7.05
2022-09-16T04:44:42.448Z,7.25
2022-09-16T04:47:12.138Z,6.65
2022-09-16T04:49:41.854Z,8.20
2022-09-16T04:52:14.140Z,10.52
2022-09-16T04:54:43.841Z,6.93
2022-09-16T04:57:13.562Z,4.65
2022-09-16T04:59:43.261Z,5.57
2022-09-16T05:02:12.937Z,3.38
2022-09-16T05:04:42.626Z,6.68
2022-09-16T05:07:14.909Z,6.97
2022-09-16T05:09:44.793Z,6.43
2022-09-16T05:12:14.471Z,12.63
2022-09-16T05:14:44.172Z,4.18
2022-09-16T05:17:23.129Z,4.15
2022-09-16T05:20:03.999Z,7.75
2022-09-16T05:22:36.288Z,5.90
2022-09-16T05:25:06.476Z,5.25
2022-09-16T05:27:36.696Z,9.48
2022-09-16T05:30:06.924Z,4.03
2022-09-16T05:32:36.591Z,6.40
2022-09-16T05:35:06.308Z,7.57
2022-09-16T05:37:38.631Z,5.90
2022-09-16T05:40:10.142Z,5.82
2022-09-16T05:42:39.882Z,5.20
2022-09-16T05:45:11.130Z,8.45
2022-09-16T05:47:40.826Z,7.93
2022-09-16T05:50:11.585Z,9.27
2022-09-16T05:52:43.944Z,7.35
2022-09-16T05:55:13.711Z,7.43
2022-09-16T05:57:43.443Z,5.75
2022-09-16T06:00:14.918Z,6.95
2022-09-16T06:02:44.750Z,6.53
2022-09-16T06:05:14.489Z,8.15
2022-09-16T06:07:46.826Z,5.22
2022-09-16T06:10:16.762Z,6.43
2022-09-16T06:12:46.926Z,10.45
2022-09-16T06:15:16.809Z,6.30
2022-09-16T06:17:46.510Z,10.00
2022-09-16T06:20:16.350Z,10.38
2022-09-16T06:22:48.700Z,8.68
2022-09-16T06:25:18.672Z,9.45
2022-09-16T06:27:48.469Z,5.80
2022-09-16T06:30:18.222Z,5.32
2022-09-16T06:32:47.964Z,6.25
2022-09-16T06:35:17.760Z,7.03
2022-09-16T06:37:50.084Z,8.60
2022-09-16T06:40:20.230Z,5.22
2022-09-16T06:42:50.737Z,3.17
2022-09-16T06:45:20.447Z,6.55
2022-09-16T06:47:50.217Z,7.05
2022-09-16T06:50:20.173Z,7.78
2022-09-16T06:52:55.964Z,7.70
2022-09-16T06:55:25.680Z,5.07
2022-09-16T06:57:55.421Z,7.80
2022-09-16T07:00:25.328Z,6.10
2022-09-16T07:02:55.539Z,6.50
2022-09-16T07:05:25.508Z,7.55
2022-09-16T07:07:58.025Z,6.03
2022-09-16T07:10:27.776Z,7.28
2022-09-16T07:12:57.567Z,9.57
2022-09-16T07:15:27.363Z,9.18
2022-09-16T07:17:57.989Z,8.82
2022-09-16T07:20:27.779Z,9.10
2022-09-16T07:23:01.665Z,8.20
2022-09-16T07:25:35.698Z,8.95
2022-09-16T07:28:06.726Z,10.43
2022-09-16T07:30:36.728Z,10.07
2022-09-16T07:33:06.682Z,14.60
2022-09-16T07:35:36.372Z,11.35
2022-09-16T07:38:08.677Z,8.60
2022-09-16T07:40:40.885Z,7.60
2022-09-16T07:43:10.661Z,15.20
2022-09-16T07:45:40.413Z,8.85
2022-09-16T07:48:10.337Z,8.65
2022-09-16T07:50:40.068Z,5.97
2022-09-16T07:53:12.400Z,7.60
2022-09-16T07:55:42.113Z,8.60
2022-09-16T07:58:11.786Z,6.97
2022-09-16T08:00:41.594Z,7.78
2022-09-16T08:03:11.389Z,9.45
2022-09-16T08:05:41.211Z,8.45
2022-09-16T08:08:13.565Z,8.18
2022-09-16T08:10:43.449Z,5.72
2022-09-16T08:13:13.683Z,6.78
2022-09-16T08:15:43.473Z,6.90
2022-09-16T08:18:13.317Z,7.00
2022-09-16T08:20:43.020Z,5.50
2022-09-16T08:23:15.523Z,6.95
2022-09-16T08:25:45.613Z,10.50
2022-09-16T08:28:16.782Z,7.35
2022-09-16T08:30:51.279Z,9.38
2022-09-16T08:33:26.010Z,10.13
2022-09-16T08:36:01.727Z,6.10
2022-09-16T08:38:34.697Z,7.53
2022-09-16T08:41:10.587Z,7.35
2022-09-16T08:43:47.513Z,6.88
2022-09-16T08:46:23.423Z,8.05
2022-09-16T08:48:58.416Z,6.65
2022-09-16T08:51:29.108Z,6.15
2022-09-16T08:54:05.186Z,8.60
2022-09-16T08:56:40.395Z,7.43
2022-09-16T08:59:20.654Z,8.32
2022-09-16T09:01:54.519Z,3.80
2022-09-16T09:04:24.508Z,4.97
2022-09-16T09:07:05.201Z,5.03
2022-09-16T09:09:53.188Z,5.20
2022-09-16T09:12:34.060Z,6.30
2022-09-16T09:15:30.611Z,5.40
2022-09-16T09:18:15.827Z,7.45
2022-09-16T09:20:55.428Z,7.85
2022-09-16T09:23:40.114Z,5.75
2022-09-16T09:26:21.991Z,8.27
2022-09-16T09:29:22.287Z,7.38
2022-09-16T09:32:00.202Z,5.78
2022-09-16T09:34:47.311Z,7.50
2022-09-16T09:37:32.440Z,3.65
2022-09-16T09:40:12.336Z,6.72
2022-09-16T09:42:50.982Z,8.38
2022-09-16T09:45:30.342Z,7.72
2022-09-16T09:48:05.335Z,9.10
2022-09-16T09:50:43.527Z,5.95
2022-09-16T09:53:20.668Z,5.65
2022-09-16T09:55:50.910Z,11.30
2022-09-16T09:58:29.708Z,7.25
2022-09-16T10:00:59.476Z,9.48
2022-09-16T10:03:31.145Z,3.47
2022-09-16T10:06:00.935Z,4.90
2022-09-16T10:08:36.047Z,4.55
2022-09-16T10:11:17.615Z,6.32
2022-09-16T10:13:55.657Z,10.80
2022-09-16T10:16:30.005Z,5.65
2022-09-16T10:19:04.467Z,9.77
2022-09-16T10:21:46.264Z,9.02
2022-09-16T10:24:33.581Z,6.95
2022-09-16T10:27:05.648Z,6.82
2022-09-16T10:29:37.976Z,6.63
2022-09-16T10:32:12.460Z,5.57
2022-09-16T10:34:44.960Z,6.30
2022-09-16T10:37:20.213Z,8.20
2022-09-16T10:39:55.868Z,7.93
2022-09-16T10:42:27.432Z,8.98
2022-09-16T10:45:06.184Z,7.75
2022-09-16T10:47:37.608Z,15.57
2022-09-16T10:50:08.992Z,5.95
2022-09-16T10:52:45.467Z,4.40
2022-09-16T10:55:25.553Z,7.82
2022-09-16T10:57:55.786Z,11.55
2022-09-16T11:00:36.296Z,13.02
2022-09-16T11:03:38.862Z,9.35
2022-09-16T11:06:21.160Z,7.43
2022-09-16T11:09:03.073Z,10.63
2022-09-16T11:11:47.347Z,9.90
2022-09-16T11:14:27.829Z,9.43
2022-09-16T11:17:12.546Z,9.02
2022-09-16T11:19:54.837Z,9.32
2022-09-16T11:22:33.211Z,8.50
2022-09-16T11:25:26.186Z,9.43
2022-09-16T11:28:07.837Z,9.65
2022-09-16T11:30:42.910Z,8.45
2022-09-16T11:33:30.543Z,9.60
2022-09-16T11:36:17.183Z,14.20
2022-09-16T11:38:57.686Z,8.68
2022-09-16T11:41:34.307Z,10.73
2022-09-16T11:44:29.831Z,12.73
2022-09-16T11:47:13.041Z,14.95
2022-09-16T11:50:09.114Z,13.48
2022-09-16T11:53:04.230Z,12.55
2022-09-16T11:55:49.880Z,14.30
2022-09-16T11:58:31.707Z,10.35
2022-09-16T12:01:05.483Z,10.57
2022-09-16T12:03:44.441Z,9.73
2022-09-16T12:06:20.133Z,13.90
2022-09-16T12:09:01.965Z,10.25
2022-09-16T12:11:36.813Z,9.45
2022-09-16T12:14:16.048Z,13.48
2022-09-16T12:16:50.795Z,12.45
2022-09-16T12:19:25.419Z,17.38
2022-09-16T12:22:04.361Z,9.25
2022-09-16T12:24:40.409Z,6.13
2022-09-16T12:27:34.306Z,5.82
2022-09-16T12:30:07.415Z,7.30
2022-09-16T12:32:45.973Z,12.57
2022-09-16T12:35:19.700Z,6.43
2022-09-16T12:37:54.617Z,4.97
2022-09-16T12:40:28.275Z,5.97
2022-09-16T12:43:28.856Z,8.05
2022-09-16T12:46:11.001Z,5.25
2022-09-16T12:49:06.724Z,7.22
2022-09-16T12:52:04.358Z,9.57
2022-09-16T12:55:08.627Z,5.43
2022-09-16T12:57:54.463Z,10.48
2022-09-16T13:00:26.187Z,6.15
2022-09-16T13:02:59.405Z,7.57
2022-09-16T13:05:33.545Z,13.77
2022-09-16T13:08:07.837Z,11.45
2022-09-16T13:11:25.507Z,11.35
2022-09-16T13:13:37.116Z,9.23
2022-09-16T13:16:10.184Z,11.05
2022-09-16T13:18:45.979Z,9.07
2022-09-16T13:21:25.785Z,7.15
2022-09-16T13:24:04.363Z,5.82
2022-09-16T13:26:48.512Z,6.72
2022-09-16T13:29:30.354Z,10.65
2022-09-16T13:32:00.287Z,9.90
2022-09-16T13:34:30.308Z,6.97
2022-09-16T13:37:00.586Z,10.10
2022-09-16T13:39:35.337Z,11.57
2022-09-16T13:42:24.950Z,8.43
2022-09-16T13:44:55.036Z,4.88
2022-09-16T13:47:40.365Z,5.60
2022-09-16T13:50:17.171Z,6.32
2022-09-16T13:52:47.089Z,9.02
2022-09-16T13:55:23.966Z,6.07
2022-09-16T13:58:03.550Z,8.68
2022-09-16T14:00:39.216Z,6.50
2022-09-16T14:03:34.510Z,7.95
2022-09-16T14:06:31.018Z,8.65
2022-09-16T14:09:07.340Z,6.88
2022-09-16T14:11:47.107Z,7.78
2022-09-16T14:14:46.318Z,7.93
2022-09-16T14:17:20.072Z,10.15
2022-09-16T14:19:51.942Z,14.02
2022-09-16T14:22:26.899Z,12.30
2022-09-16T14:25:06.231Z,12.85
2022-09-16T14:27:44.185Z,10.10
2022-09-16T14:30:20.876Z,14.23
2022-09-16T14:32:51.626Z,7.75
2022-09-16T14:35:24.967Z,10.02
2022-09-16T14:37:59.107Z,11.43
2022-09-16T14:40:30.092Z,7.50
2022-09-16T14:43:03.337Z,10.77
2022-09-16T14:45:38.272Z,11.35
2022-09-16T14:48:12.030Z,6.75
2022-09-16T14:50:44.353Z,9.20
2022-09-16T14:53:35.378Z,12.40
2022-09-16T14:56:07.413Z,8.85
2022-09-16T14:58:38.949Z,13.63
2022-09-16T15:01:17.299Z,9.35
2022-09-16T15:03:52.720Z,13.55
2022-09-16T15:06:25.828Z,9.55
2022-09-16T15:09:00.615Z,12.45
2022-09-16T15:11:47.687Z,11.77
2022-09-16T15:14:18.415Z,9.27
2022-09-16T15:16:54.357Z,9.82
2022-09-16T15:19:28.512Z,8.50
2022-09-16T15:21:58.974Z,10.77
2022-09-16T15:24:31.436Z,15.20
2022-09-16T15:27:02.849Z,10.90
2022-09-16T15:29:35.452Z,6.75
2022-09-16T15:32:23.402Z,8.93
2022-09-16T15:35:14.425Z,15.50
2022-09-16T15:37:44.201Z,7.30
2022-09-16T15:40:36.672Z,7.05
2022-09-16T15:43:19.486Z,9.93
2022-09-16T15:46:01.872Z,11.45
2022-09-16T15:48:39.569Z,15.23
2022-09-16T15:51:13.113Z,12.73
2022-09-16T15:53:49.299Z,11.52
2022-09-16T15:56:29.918Z,12.40
2022-09-16T15:59:03.141Z,11.63
2022-09-16T16:01:55.345Z,11.13
2022-09-16T16:04:30.826Z,10.80
2022-09-16T16:07:02.149Z,15.05
2022-09-16T16:09:43.377Z,11.50
2022-09-16T16:12:16.358Z,7.82
2022-09-16T16:14:47.057Z,11.90
2022-09-16T16:17:19.393Z,6.60
2022-09-16T16:19:52.825Z,12.15
2022-09-16T16:22:22.859Z,10.07
2022-09-16T16:24:52.587Z,10.60
2022-09-16T16:27:22.372Z,5.97
2022-09-16T16:29:52.306Z,10.75
2022-09-16T16:32:22.134Z,9.25
2022-09-16T16:34:58.041Z,12.63
2022-09-16T16:37:45.346Z,11.93
2022-09-16T16:40:15.628Z,14.25
2022-09-16T16:42:45.789Z,12.23
2022-09-16T16:45:16.777Z,10.57
2022-09-16T16:47:46.997Z,14.77
2022-09-16T16:50:19.504Z,10.05
2022-09-16T16:52:53.914Z,13.70
2022-09-16T16:55:23.585Z,8.65
2022-09-16T16:57:53.316Z,8.95
2022-09-16T17:00:23.277Z,9.73
2022-09-16T17:02:53.015Z,10.27
2022-09-16T17:05:25.407Z,14.20
2022-09-16T17:07:55.240Z,13.18
2022-09-16T17:10:25.361Z,16.27
2022-09-16T17:12:55.077Z,18.55
2022-09-16T17:15:25.610Z,19.77
2022-09-16T17:17:55.321Z,15.80
2022-09-16T17:20:27.993Z,23.80
2022-09-16T17:22:57.725Z,14.02
2022-09-16T17:25:27.910Z,13.57
2022-09-16T17:27:58.858Z,12.48
2022-09-16T17:30:28.615Z,26.92
2022-09-16T17:32:58.297Z,15.15
2022-09-16T17:35:30.580Z,11.93
2022-09-16T17:38:04.852Z,18.17
2022-09-16T17:40:36.596Z,19.83
2022-09-16T17:43:06.633Z,18.10
2022-09-16T17:45:36.529Z,10.40
2022-09-16T17:48:06.321Z,15.13
2022-09-16T17:50:40.473Z,11.98
2022-09-16T17:53:10.193Z,6.78
2022-09-16T17:55:39.847Z,11.80
2022-09-16T17:58:09.567Z,9.75
2022-09-16T18:00:39.472Z,11.60
2022-09-16T18:03:09.476Z,13.27
2022-09-16T18:05:42.667Z,11.60
2022-09-16T18:08:12.369Z,11.60
2022-09-16T18:10:42.164Z,12.35
2022-09-16T18:13:11.924Z,14.55
2022-09-16T18:15:41.709Z,12.45
2022-09-16T18:18:15.136Z,12.88
2022-09-16T18:20:47.450Z,14.10
2022-09-16T18:23:17.177Z,13.85
2022-09-16T18:25:46.904Z,18.17
2022-09-16T18:28:16.650Z,19.25
2022-09-16T18:30:46.896Z,11.77
2022-09-16T18:33:16.905Z,14.90
2022-09-16T18:35:49.198Z,13.38
2022-09-16T18:38:18.889Z,14.23
2022-09-16T18:40:48.600Z,10.25
2022-09-16T18:43:18.290Z,10.40
2022-09-16T18:45:48.054Z,15.07
2022-09-16T18:48:17.728Z,16.10
2022-09-16T18:50:50.937Z,13.43
2022-09-16T18:53:20.602Z,12.77
2022-09-16T18:55:50.302Z,9.40
2022-09-16T18:58:20.005Z,13.77
2022-09-16T19:00:51.249Z,15.30
2022-09-16T19:03:23.161Z,17.52
2022-09-16T19:06:01.499Z,25.15
2022-09-16T19:08:31.208Z,18.27
2022-09-16T19:11:05.440Z,15.48
2022-09-16T19:13:36.089Z,17.65
2022-09-16T19:16:06.382Z,9.13
2022-09-16T19:18:36.206Z,10.70
2022-09-16T19:21:08.950Z,9.98
2022-09-16T19:23:38.674Z,14.48
2022-09-16T19:26:08.750Z,14.40
2022-09-16T19:28:39.097Z,16.50
2022-09-16T19:31:11.094Z,9.57
2022-09-16T19:33:41.891Z,11.23
2022-09-16T19:36:19.180Z,14.52
2022-09-16T19:38:50.027Z,10.45
2022-09-16T19:41:20.908Z,16.15
2022-09-16T19:43:51.166Z,14.57
2022-09-16T19:46:21.400Z,15.93
2022-09-16T19:48:52.746Z,11.38
2022-09-16T19:51:26.454Z,8.48
2022-09-16T19:53:58.492Z,11.32
2022-09-16T19:56:30.003Z,12.18
2022-09-16T19:59:01.469Z,9.85
2022-09-16T20:01:33.259Z,10.20
2022-09-16T20:04:04.044Z,16.63
2022-09-16T20:06:38.989Z,14.30
2022-09-16T20:09:11.603Z,17.40
2022-09-16T20:11:43.765Z,10.68
2022-09-16T20:14:16.972Z,15.95
2022-09-16T20:16:46.999Z,16.20
2022-09-16T20:19:18.641Z,14.50
2022-09-16T20:21:51.395Z,13.40
2022-09-16T20:24:23.183Z,13.23
2022-09-16T20:26:55.266Z,13.27
2022-09-16T20:29:24.941Z,19.50
2022-09-16T20:31:55.309Z,12.13
2022-09-16T20:34:25.140Z,16.73
2022-09-16T20:36:57.506Z,7.82
2022-09-16T20:39:27.190Z,10.63
2022-09-16T20:41:58.615Z,12.60
2022-09-16T20:44:28.304Z,15.82
2022-09-16T20:46:58.057Z,13.05
2022-09-16T20:49:28.593Z,11.07
2022-09-16T20:52:00.881Z,12.68
2022-09-16T20:54:30.589Z,13.98
2022-09-16T20:57:00.801Z,15.00
2022-09-16T20:59:31.737Z,11.05
2022-09-16T21:02:04.163Z,17.15
2022-09-16T21:04:33.947Z,14.27
2022-09-16T21:07:06.269Z,11.68
2022-09-16T21:09:35.969Z,12.68
2022-09-16T21:12:07.433Z,13.05
2022-09-16T21:14:37.253Z,15.55
2022-09-16T21:17:06.965Z,13.48
2022-09-16T21:19:36.653Z,12.57
2022-09-16T21:22:09.293Z,15.35
2022-09-16T21:24:38.990Z,14.82
2022-09-16T21:27:08.860Z,10.63
2022-09-16T21:29:38.556Z,15.45
2022-09-16T21:32:10.485Z,14.77
2022-09-16T21:34:40.252Z,13.50
2022-09-16T21:37:12.556Z,17.83
2022-09-16T21:39:42.235Z,12.77
2022-09-16T21:42:11.920Z,14.40
2022-09-16T21:44:41.642Z,12.82
2022-09-16T21:47:11.682Z,15.68
2022-09-16T21:49:41.389Z,15.32
2022-09-16T21:52:13.668Z,16.80
2022-09-16T21:54:43.344Z,18.15
2022-09-16T21:57:14.588Z,11.73
2022-09-16T21:59:44.304Z,12.73
2022-09-16T22:02:13.999Z,19.45
2022-09-16T22:04:43.722Z,15.57
2022-09-16T22:07:16.004Z,16.98
2022-09-16T22:09:45.665Z,10.57
2022-09-16T22:12:15.352Z,13.15
2022-09-16T22:14:45.029Z,12.00
2022-09-16T22:17:14.749Z,11.07
2022-09-16T22:19:44.425Z,11.85
2022-09-16T22:22:16.734Z,14.38
2022-09-16T22:24:46.380Z,11.52
2022-09-16T22:27:16.057Z,12.98
2022-09-16T22:29:45.746Z,11.27
2022-09-16T22:32:15.513Z,10.40
2022-09-16T22:34:45.228Z,8.68
2022-09-16T22:37:17.526Z,18.92
2022-09-16T22:39:47.205Z,15.13
2022-09-16T22:42:16.892Z,14.50
2022-09-16T22:44:46.568Z,14.27
2022-09-16T22:47:16.243Z,19.30
2022-09-16T22:49:45.961Z,12.10
2022-09-16T22:52:18.330Z,13.77
2022-09-16T22:54:48.034Z,12.38
2022-09-16T22:57:17.937Z,10.70
2022-09-16T22:59:47.636Z,10.15
2022-09-16T23:02:17.336Z,12.10
2022-09-16T23:04:47.041Z,12.05
2022-09-16T23:07:19.381Z,13.60
2022-09-16T23:09:49.080Z,12.95
2022-09-16T23:12:18.800Z,13.25
2022-09-16T23:14:48.529Z,14.00
2022-09-16T23:17:18.237Z,12.23
2022-09-16T23:19:47.915Z,11.20
2022-09-16T23:22:20.202Z,10.82
2022-09-16T23:24:49.904Z,10.82
2022-09-16T23:27:19.631Z,8.55
2022-09-16T23:29:49.309Z,10.68
2022-09-16T23:32:19.018Z,11.55
2022-09-16T23:34:49.417Z,15.18
2022-09-16T23:37:21.713Z,12.48
2022-09-16T23:39:51.459Z,11.80
2022-09-16T23:42:21.151Z,12.63
2022-09-16T23:44:50.828Z,10.43
2022-09-16T23:47:20.673Z,11.73
2022-09-16T23:49:50.363Z,8.82
2022-09-16T23:52:22.704Z,11.65
2022-09-16T23:54:52.393Z,10.27
2022-09-16T23:57:22.724Z,14.65
2022-09-16T23:59:52.421Z,7.75
